Time;durP1;ratioP1;P1;durP2;ratioP2;P2;SDS_P1;SDS_P2;PMS_P1;PMS_P2;Temp;Humidity;BMP_temperature;BMP_pressure;BME280_temperature;BME280_humidity;BME280_pressure;Samples;Min_cycle;Max_cycle;Signal;HPM_P1;HPM_P2
2024/01/03 00:01:12;;;;;;;;;;;;;;;7.57;100.00;94856.53;5066888;28;19969;-78
2024/01/03 00:03:37;;;;;;;;;;;;;;;7.55;100.00;94869.81;5066597;28;20056;-77
2024/01/03 00:06:04;;;;;;;;;;;;;;;7.55;100.00;94863.81;5066609;28;19945;-72
2024/01/03 00:08:32;;;;;;;;;;;;;;;7.58;100.00;94866.75;5066450;28;19961;-69
2024/01/03 00:10:58;;;;;;;;;;;;;;;7.57;100.00;94859.16;5066076;28;19941;-69
2024/01/03 00:13:33;;;;;;;;;;;;;;;7.56;100.00;94866.19;5048512;28;19933;-69
2024/01/03 00:15:59;;;;;;;;;;;;;;;7.52;100.00;94863.25;5066312;28;19944;-69
2024/01/03 00:18:32;;;;;;;;;;;;;;;7.55;100.00;94874.25;5066181;28;19966;-69
2024/01/03 00:20:59;;;;;;;;;;;;;;;7.54;100.00;94883.91;5048481;28;20078;-69
2024/01/03 00:23:35;;;;;;;;;;;;;;;7.56;100.00;94870.59;5048729;28;20096;-72
2024/01/03 00:26:01;;;;;;;;;;;;;;;7.56;100.00;94862.78;5066641;28;20113;-72
2024/01/03 00:28:27;;;;;;;;;;;;;;;7.54;100.00;94863.03;5066042;28;20005;-73
2024/01/03 00:30:53;;;;;;;;;;;;;;;7.56;100.00;94881.03;5066011;28;20026;-73
2024/01/03 00:33:19;;;;;;;;;;;;;;;7.53;100.00;94896.13;5065830;28;20024;-73
2024/01/03 00:35:45;;;;;;;;;;;;;;;7.55;100.00;94889.91;5064996;28;20038;-73
2024/01/03 00:38:11;;;;;;;;;;;;;;;7.53;100.00;94893.50;5065759;28;19937;-74
2024/01/03 00:40:50;;;;;;;;;;;;;;;7.51;100.00;94900.78;5066286;28;20212;-72
2024/01/03 00:43:15;;;;;;;;;;;;;;;7.49;100.00;94899.44;5065641;28;19935;-87
2024/01/03 00:45:41;;;;;;;;;;;;;;;7.48;100.00;94905.69;5047664;28;20207;-87
2024/01/03 00:48:07;;;;;;;;;;;;;;;7.45;100.00;94900.94;5047797;28;19943;-87
2024/01/03 00:50:33;;;;;;;;;;;;;;;7.43;100.00;94906.41;5065615;28;19944;-87
2024/01/03 00:52:59;;;;;;;;;;;;;;;7.41;100.00;94908.47;5065624;28;19943;-87
2024/01/03 00:55:25;;;;;;;;;;;;;;;7.39;100.00;94913.13;5065475;28;19956;-87
2024/01/03 00:57:51;;;;;;;;;;;;;;;7.37;100.00;94923.00;5066219;28;19942;-87
2024/01/03 01:00:17;;;;;;;;;;;;;;;7.34;100.00;94915.63;5065217;28;19933;-72
2024/01/03 01:02:44;;;;;;;;;;;;;;;7.35;100.00;94921.63;5065588;28;19945;-72
2024/01/03 01:05:10;;;;;;;;;;;;;;;7.32;100.00;94920.28;5065277;28;19957;-72
2024/01/03 01:07:36;;;;;;;;;;;;;;;7.29;100.00;94898.09;5065203;28;19935;-72
2024/01/03 01:10:02;;;;;;;;;;;;;;;7.28;100.00;94904.31;5065090;28;19942;-72
2024/01/03 01:12:28;;;;;;;;;;;;;;;7.26;100.00;94895.16;5064493;28;19974;-73
2024/01/03 01:14:53;;;;;;;;;;;;;;;7.25;100.00;94890.97;5065068;28;19965;-72
2024/01/03 01:17:19;;;;;;;;;;;;;;;7.25;100.00;94901.41;5065044;28;19940;-72
2024/01/03 01:19:45;;;;;;;;;;;;;;;7.26;100.00;94918.63;5065088;28;20147;-70
2024/01/03 01:22:12;;;;;;;;;;;;;;;7.25;100.00;94909.22;5064974;28;19939;-73
2024/01/03 01:24:38;;;;;;;;;;;;;;;7.25;100.00;94896.97;5064961;28;19942;-72
2024/01/03 01:27:04;;;;;;;;;;;;;;;7.26;100.00;94902.97;5064836;28;19942;-73
2024/01/03 01:29:29;;;;;;;;;;;;;;;7.25;100.00;94901.41;5064837;28;19944;-73
2024/01/03 01:31:55;;;;;;;;;;;;;;;7.25;100.00;94904.00;5064774;28;19946;-72
2024/01/03 01:34:21;;;;;;;;;;;;;;;7.25;100.00;94914.44;5064646;28;19951;-73
2024/01/03 01:36:47;;;;;;;;;;;;;;;7.24;100.00;94923.28;5064653;28;20196;-76
2024/01/03 01:39:13;;;;;;;;;;;;;;;7.24;100.00;94918.06;5064559;28;20007;-73
2024/01/03 01:41:39;;;;;;;;;;;;;;;7.22;100.00;94897.44;5030122;28;20123;-72
2024/01/03 01:44:05;;;;;;;;;;;;;;;7.21;100.00;94923.75;5064513;28;19939;-71
2024/01/03 01:46:31;;;;;;;;;;;;;;;7.19;100.00;94917.97;5064392;28;19953;-71
2024/01/03 01:48:58;;;;;;;;;;;;;;;7.17;100.00;94928.63;5064391;28;19943;-72
2024/01/03 01:51:24;;;;;;;;;;;;;;;7.16;100.00;94923.66;5046435;28;19946;-71
2024/01/03 01:53:50;;;;;;;;;;;;;;;7.13;100.00;94931.94;5064258;28;19955;-71
2024/01/03 01:56:18;;;;;;;;;;;;;;;7.10;100.00;94939.22;5063670;28;20032;-73
2024/01/03 01:58:44;;;;;;;;;;;;;;;7.08;100.00;94943.06;5046422;28;19953;-72
2024/01/03 02:01:10;;;;;;;;;;;;;;;7.05;100.00;94938.31;5064039;28;19971;-72
2024/01/03 02:03:36;;;;;;;;;;;;;;;7.02;100.00;94929.16;5064156;28;19940;-71
2024/01/03 02:06:03;;;;;;;;;;;;;;;6.98;100.00;94932.47;5064082;28;19935;-72
2024/01/03 02:08:30;;;;;;;;;;;;;;;6.97;100.00;94928.25;5064022;28;20125;-71
2024/01/03 02:10:56;;;;;;;;;;;;;;;6.95;100.00;94920.69;5063945;28;19961;-71
2024/01/03 02:13:22;;;;;;;;;;;;;;;6.92;100.00;94939.38;5064007;28;20227;-77
2024/01/03 02:15:48;;;;;;;;;;;;;;;6.91;100.00;94948.22;5063387;28;19958;-69
2024/01/03 02:18:20;;;;;;;;;;;;;;;6.88;100.00;94939.03;5064661;28;19935;-88
2024/01/03 02:20:46;;;;;;;;;;;;;;;6.89;100.00;94934.66;5046070;28;19949;-87
2024/01/03 02:23:12;;;;;;;;;;;;;;;6.86;100.00;94920.25;5063866;28;20221;-87
2024/01/03 02:25:39;;;;;;;;;;;;;;;6.85;100.00;94921.28;5064543;28;19933;-88
2024/01/03 02:28:07;;;;;;;;;;;;;;;6.86;100.00;94914.25;5064059;28;19943;-88
2024/01/03 02:30:33;;;;;;;;;;;;;;;6.86;100.00;94909.03;5063933;28;19943;-88
2024/01/03 02:32:59;;;;;;;;;;;;;;;6.88;100.00;94907.78;5046693;28;20195;-74
2024/01/03 02:35:25;;;;;;;;;;;;;;;6.89;100.00;94913.78;5063986;28;19964;-86
2024/01/03 02:37:51;;;;;;;;;;;;;;;6.87;100.00;94916.63;5064082;28;19936;-86
2024/01/03 02:40:16;;;;;;;;;;;;;;;6.86;100.00;94912.44;5063944;28;19938;-85
2024/01/03 02:42:42;;;;;;;;;;;;;;;6.88;100.00;94904.38;5064240;28;19945;-85
2024/01/03 02:45:08;;;;;;;;;;;;;;;6.88;100.00;94904.38;5063654;28;19936;-85
2024/01/03 02:47:34;;;;;;;;;;;;;;;6.89;100.00;94916.41;5046428;28;19984;-85
2024/01/03 02:50:00;;;;;;;;;;;;;;;6.93;100.00;94912.31;5046255;28;19978;-74
2024/01/03 02:52:26;;;;;;;;;;;;;;;6.96;100.00;94919.66;5046145;28;19950;-77
2024/01/03 02:54:51;;;;;;;;;;;;;;;6.97;100.00;94920.44;5063824;28;19953;-69
2024/01/03 02:57:17;;;;;;;;;;;;;;;6.99;100.00;94915.78;5064016;28;20117;-70
2024/01/03 02:59:43;;;;;;;;;;;;;;;7.01;100.00;94913.75;5063766;28;19942;-69
2024/01/03 03:02:09;;;;;;;;;;;;;;;7.01;100.00;94919.72;5063164;28;19967;-69
2024/01/03 03:04:35;;;;;;;;;;;;;;;7.04;100.00;94915.91;5063730;28;20045;-69
2024/01/03 03:07:01;;;;;;;;;;;;;;;7.05;100.00;94912.25;5064278;28;19943;-69
2024/01/03 03:09:26;;;;;;;;;;;;;;;7.05;100.00;94915.63;5067786;28;19963;-77
2024/01/03 03:11:52;;;;;;;;;;;;;;;7.06;100.00;94916.44;5067356;28;19935;-73
2024/01/03 03:14:18;;;;;;;;;;;;;;;7.08;100.00;94915.19;5049966;28;19962;-72
2024/01/03 03:16:44;;;;;;;;;;;;;;;7.07;100.00;94908.38;5033618;28;19957;-72
2024/01/03 03:19:10;;;;;;;;;;;;;;;7.08;100.00;94914.41;5067722;28;20149;-73
2024/01/03 03:21:35;;;;;;;;;;;;;;;7.08;100.00;94909.97;5049411;28;19962;-73
2024/01/03 03:24:01;;;;;;;;;;;;;;;7.08;100.00;94911.78;5049906;28;20210;-73
2024/01/03 03:26:27;;;;;;;;;;;;;;;7.07;100.00;94916.19;5050026;28;19936;-73
2024/01/03 03:28:53;;;;;;;;;;;;;;;7.05;100.00;94925.28;5049798;28;19969;-87
2024/01/03 03:31:19;;;;;;;;;;;;;;;7.03;100.00;94919.50;5067712;28;19940;-88
2024/01/03 03:33:45;;;;;;;;;;;;;;;7.02;100.00;94917.94;5067534;28;20004;-88
2024/01/03 03:36:14;;;;;;;;;;;;;;;6.99;100.00;94910.56;5067625;28;20018;-88
2024/01/03 03:38:40;;;;;;;;;;;;;;;6.98;100.00;94914.22;5067614;28;20037;-89
2024/01/03 03:41:13;;;;;;;;;;;;;;;6.97;100.00;94917.81;5067358;28;20206;-87
2024/01/03 03:43:39;;;;;;;;;;;;;;;6.95;100.00;94915.47;5066810;28;20224;-88
2024/01/03 03:46:09;;;;;;;;;;;;;;;6.92;100.00;94908.09;5067527;28;19941;-72
2024/01/03 03:48:34;;;;;;;;;;;;;;;6.90;100.00;94905.72;5066774;28;19944;-72
2024/01/03 03:51:01;;;;;;;;;;;;;;;6.89;100.00;94895.56;5066659;28;19964;-73
2024/01/03 03:53:27;;;;;;;;;;;;;;;6.87;100.00;94895.78;5067101;28;20236;-72
2024/01/03 03:55:53;;;;;;;;;;;;;;;6.87;100.00;94905.41;5066921;28;20015;-72
2024/01/03 03:58:18;;;;;;;;;;;;;;;6.86;100.00;94912.44;5066574;28;20121;-73
2024/01/03 04:00:44;;;;;;;;;;;;;;;6.83;100.00;94902.47;5066753;28;19963;-73
2024/01/03 04:03:10;;;;;;;;;;;;;;;6.82;100.00;94898.28;5066598;28;19942;-72
2024/01/03 04:05:37;;;;;;;;;;;;;;;6.82;100.00;94902.69;5067124;28;19939;-72
2024/01/03 04:08:03;;;;;;;;;;;;;;;6.81;100.00;94901.13;5066430;28;19955;-69
2024/01/03 04:10:29;;;;;;;;;;;;;;;6.82;100.00;94907.91;5066505;28;19945;-69
2024/01/03 04:12:58;;;;;;;;;;;;;;;6.81;100.00;94914.16;5066339;28;19940;-69
2024/01/03 04:15:24;;;;;;;;;;;;;;;6.79;100.00;94917.00;5048584;28;19957;-69
2024/01/03 04:17:50;;;;;;;;;;;;;;;6.76;100.00;94911.44;5049133;28;19961;-69
2024/01/03 04:20:16;;;;;;;;;;;;;;;6.74;100.00;94906.50;5066101;28;20000;-69
2024/01/03 04:22:43;;;;;;;;;;;;;;;6.75;100.00;94915.09;5066560;28;20003;-69
2024/01/03 04:25:09;;;;;;;;;;;;;;;6.75;100.00;94910.66;5066579;28;19930;-69
2024/01/03 04:27:35;;;;;;;;;;;;;;;6.77;100.00;94916.44;5066634;28;19943;-68
2024/01/03 04:30:01;;;;;;;;;;;;;;;6.79;100.00;94918.81;5066502;28;19934;-69
2024/01/03 04:32:26;;;;;;;;;;;;;;;6.79;100.00;94924.03;5065907;28;20221;-69
2024/01/03 04:34:52;;;;;;;;;;;;;;;6.78;100.00;94933.63;5066545;28;19961;-69
2024/01/03 04:37:18;;;;;;;;;;;;;;;6.76;100.00;94920.06;5066056;28;19968;-69
2024/01/03 04:39:44;;;;;;;;;;;;;;;6.77;100.00;94931.28;5048646;28;20237;-69
2024/01/03 04:42:10;;;;;;;;;;;;;;;6.75;100.00;94920.28;5066500;28;19935;-84
2024/01/03 04:44:36;;;;;;;;;;;;;;;6.75;100.00;94928.91;5066398;28;19945;-69
2024/01/03 04:47:02;;;;;;;;;;;;;;;6.75;100.00;94918.47;5048562;28;19949;-70
2024/01/03 04:49:29;;;;;;;;;;;;;;;6.76;100.00;94927.88;5066144;28;19965;-69
2024/01/03 04:51:55;;;;;;;;;;;;;;;6.76;100.00;94920.06;5066266;28;19947;-69
2024/01/03 04:54:20;;;;;;;;;;;;;;;6.77;100.00;94918.25;5066177;28;19936;-70
2024/01/03 04:56:47;;;;;;;;;;;;;;;6.79;100.00;94926.63;5065550;28;19935;-69
2024/01/03 04:59:12;;;;;;;;;;;;;;;6.80;100.00;94923.78;5066028;28;19940;-77
2024/01/03 05:01:42;;;;;;;;;;;;;;;6.80;100.00;94922.97;5065479;28;20171;-70
2024/01/03 05:04:08;;;;;;;;;;;;;;;6.80;100.00;94928.97;5065912;28;19955;-69
2024/01/03 05:06:34;;;;;;;;;;;;;;;6.82;100.00;94941.78;5065366;28;19937;-69
2024/01/03 05:09:00;;;;;;;;;;;;;;;6.80;100.00;94934.19;5065592;28;20121;-70
2024/01/03 05:11:26;;;;;;;;;;;;;;;6.81;100.00;94940.22;5048180;28;19939;-69
2024/01/03 05:13:52;;;;;;;;;;;;;;;6.79;100.00;94947.47;5065274;28;20134;-69
2024/01/03 05:16:18;;;;;;;;;;;;;;;6.77;100.00;94950.31;5065564;28;19992;-69
2024/01/03 05:18:44;;;;;;;;;;;;;;;6.78;100.00;94946.66;5065623;28;19970;-73
2024/01/03 05:21:10;;;;;;;;;;;;;;;6.81;100.00;94950.63;5065202;28;19937;-70
2024/01/03 05:23:36;;;;;;;;;;;;;;;6.82;100.00;94950.38;5065770;28;19945;-70
2024/01/03 05:26:02;;;;;;;;;;;;;;;6.85;100.00;94951.75;5047864;28;20099;-71
2024/01/03 05:28:28;;;;;;;;;;;;;;;6.89;100.00;94939.84;5065699;28;20001;-70
2024/01/03 05:30:54;;;;;;;;;;;;;;;6.90;100.00;94936.22;5064666;28;19936;-70
2024/01/03 05:33:19;;;;;;;;;;;;;;;6.90;100.00;94936.22;5065268;28;19950;-71
2024/01/03 05:35:45;;;;;;;;;;;;;;;6.90;100.00;94937.00;5065199;28;19958;-73
2024/01/03 05:38:11;;;;;;;;;;;;;;;6.88;100.00;94933.84;5065513;28;19936;-70
2024/01/03 05:40:37;;;;;;;;;;;;;;;6.88;100.00;94912.97;5065148;28;19941;-70
2024/01/03 05:43:03;;;;;;;;;;;;;;;6.92;100.00;94939.38;5065131;28;19935;-70
2024/01/03 05:45:29;;;;;;;;;;;;;;;6.90;100.00;94918.75;5048048;28;20106;-70
2024/01/03 05:47:54;;;;;;;;;;;;;;;6.93;100.00;94917.53;5065065;28;20016;-70
2024/01/03 05:50:20;;;;;;;;;;;;;;;6.95;100.00;94938.13;5065541;28;19946;-71
2024/01/03 05:52:46;;;;;;;;;;;;;;;6.95;100.00;94949.34;5064843;28;19976;-71
2024/01/03 05:55:12;;;;;;;;;;;;;;;6.94;100.00;94960.78;5064484;28;19953;-73
2024/01/03 05:57:38;;;;;;;;;;;;;;;6.94;100.00;94967.81;5046654;28;19947;-73
2024/01/03 06:00:05;;;;;;;;;;;;;;;6.95;100.00;94964.19;5064786;28;19945;-73
2024/01/03 06:02:31;;;;;;;;;;;;;;;6.93;100.00;94950.59;5046424;28;19947;-72
2024/01/03 06:04:57;;;;;;;;;;;;;;;6.89;100.00;94953.66;5064248;28;19988;-72
2024/01/03 06:07:23;;;;;;;;;;;;;;;6.86;100.00;94959.31;5046325;28;19952;-73
2024/01/03 06:09:48;;;;;;;;;;;;;;;6.83;100.00;94956.41;5064122;28;19956;-73
2024/01/03 06:12:14;;;;;;;;;;;;;;;6.84;100.00;94960.59;5064177;28;19940;-68
2024/01/03 06:14:40;;;;;;;;;;;;;;;6.82;100.00;94967.84;5063972;28;19959;-72
2024/01/03 06:17:06;;;;;;;;;;;;;;;6.81;100.00;94969.66;5046354;28;19947;-73
2024/01/03 06:19:32;;;;;;;;;;;;;;;6.80;100.00;94965.47;5046669;28;19942;-72
2024/01/03 06:21:58;;;;;;;;;;;;;;;6.81;100.00;94964.44;5046066;28;19943;-72
2024/01/03 06:24:24;;;;;;;;;;;;;;;6.80;100.00;94964.66;5046144;28;19934;-73
2024/01/03 06:26:50;;;;;;;;;;;;;;;6.78;100.00;94951.88;5045930;28;19952;-72
2024/01/03 06:29:15;;;;;;;;;;;;;;;6.76;100.00;94959.16;5063766;28;19972;-73
2024/01/03 06:31:41;;;;;;;;;;;;;;;6.75;100.00;94960.16;5029610;28;19944;-86
2024/01/03 06:34:07;;;;;;;;;;;;;;;6.76;100.00;94955.72;5063845;28;19961;-70
2024/01/03 06:36:33;;;;;;;;;;;;;;;6.75;100.00;94970.56;5063628;28;20136;-70
2024/01/03 06:38:59;;;;;;;;;;;;;;;6.75;100.00;94964.59;5063678;28;19941;-69
2024/01/03 06:41:25;;;;;;;;;;;;;;;6.77;100.00;94958.13;5064288;28;20022;-70
2024/01/03 06:43:51;;;;;;;;;;;;;;;6.81;100.00;94963.66;5064151;28;19977;-70
2024/01/03 06:46:17;;;;;;;;;;;;;;;6.84;100.00;94955.38;5063587;28;19936;-69
2024/01/03 06:48:42;;;;;;;;;;;;;;;6.87;100.00;94958.31;5063525;28;19994;-70
2024/01/03 06:51:08;;;;;;;;;;;;;;;6.89;100.00;94952.88;5063492;28;19933;-70
2024/01/03 06:53:37;;;;;;;;;;;;;;;6.90;100.00;94955.25;5062724;28;21090;-72
2024/01/03 06:56:03;;;;;;;;;;;;;;;6.92;100.00;94960.22;5063411;28;20252;-72
2024/01/03 06:58:29;;;;;;;;;;;;;;;6.93;100.00;94950.59;5063399;28;19948;-73
2024/01/03 07:00:55;;;;;;;;;;;;;;;6.95;100.00;94962.38;5062506;28;19970;-73
2024/01/03 07:03:20;;;;;;;;;;;;;;;6.96;100.00;94966.56;5063375;28;19939;-73
2024/01/03 07:05:46;;;;;;;;;;;;;;;6.98;100.00;94971.56;5063291;28;19968;-73
2024/01/03 07:08:12;;;;;;;;;;;;;;;6.97;100.00;94977.78;5063244;28;19975;-69
2024/01/03 07:10:38;;;;;;;;;;;;;;;6.97;100.00;94986.41;5063305;28;19937;-72
2024/01/03 07:13:04;;;;;;;;;;;;;;;6.97;100.00;94983.78;5045559;28;19940;-71
2024/01/03 07:15:30;;;;;;;;;;;;;;;6.98;100.00;94987.97;5045447;28;20010;-69
2024/01/03 07:17:56;;;;;;;;;;;;;;;6.99;100.00;94984.34;5063204;28;19943;-69
2024/01/03 07:20:22;;;;;;;;;;;;;;;7.03;100.00;94988.06;5063202;28;19934;-70
2024/01/03 07:22:48;;;;;;;;;;;;;;;7.04;100.00;94989.66;5063152;28;19940;-70
2024/01/03 07:25:15;;;;;;;;;;;;;;;7.04;100.00;94989.66;5063102;28;19932;-69
2024/01/03 07:27:41;;;;;;;;;;;;;;;7.06;100.00;94979.00;5063042;28;19952;-72
2024/01/03 07:30:07;;;;;;;;;;;;;;;7.10;100.00;94986.13;5063229;28;20224;-73
2024/01/03 07:32:32;;;;;;;;;;;;;;;7.14;100.00;94983.03;5045313;28;19937;-73
2024/01/03 07:34:58;;;;;;;;;;;;;;;7.16;100.00;94971.38;5045026;28;19963;-73
2024/01/03 07:37:24;;;;;;;;;;;;;;;7.21;100.00;94983.72;5045268;28;20226;-73
2024/01/03 07:39:50;;;;;;;;;;;;;;;7.25;100.00;94974.41;5062996;28;20181;-73
2024/01/03 07:42:17;;;;;;;;;;;;;;;7.25;100.00;94967.38;5062960;28;19939;-73
2024/01/03 07:44:42;;;;;;;;;;;;;;;7.27;100.00;94969.75;5062912;28;20136;-69
2024/01/03 07:47:10;;;;;;;;;;;;;;;7.29;100.00;94970.31;5045263;28;19944;-76
2024/01/03 07:49:36;;;;;;;;;;;;;;;7.30;100.00;94985.69;5045158;28;19943;-69
2024/01/03 07:52:02;;;;;;;;;;;;;;;7.32;100.00;94981.03;5044983;28;19945;-69
2024/01/03 07:54:28;;;;;;;;;;;;;;;7.35;100.00;94984.22;5046423;28;19940;-69
2024/01/03 07:56:54;;;;;;;;;;;;;;;7.37;100.00;94980.38;5066516;28;19958;-69
2024/01/03 07:59:19;;;;;;;;;;;;;;;7.40;100.00;94982.50;5066503;28;19937;-68
2024/01/03 08:01:45;;;;;;;;;;;;;;;7.42;100.00;94984.88;5066348;28;20007;-69
2024/01/03 08:04:11;;;;;;;;;;;;;;;7.45;100.00;94987.78;5066401;28;19944;-77
2024/01/03 08:06:37;;;;;;;;;;;;;;;7.48;100.00;94983.94;5067096;28;20081;-69
2024/01/03 08:09:03;;;;;;;;;;;;;;;7.53;100.00;94999.69;5048326;28;20275;-69
2024/01/03 08:11:29;;;;;;;;;;;;;;;7.58;100.00;94997.16;5066967;28;19939;-70
2024/01/03 08:13:54;;;;;;;;;;;;;;;7.64;100.00;95009.28;5066633;28;19984;-69
2024/01/03 08:16:20;;;;;;;;;;;;;;;7.69;100.00;95000.75;5066386;28;20000;-69
2024/01/03 08:18:46;;;;;;;;;;;;;;;7.75;100.00;94999.00;5049080;28;19950;-69
2024/01/03 08:21:13;;;;;;;;;;;;;;;7.82;100.00;94995.22;5032293;28;20220;-69
2024/01/03 08:23:38;;;;;;;;;;;;;;;7.96;100.00;94987.88;5066543;28;19939;-71
2024/01/03 08:26:11;;;;;;;;;;;;;;;8.06;100.00;94992.47;5066239;28;20001;-73
2024/01/03 08:28:37;;;;;;;;;;;;;;;8.08;100.00;94975.56;5048759;28;19947;-73
2024/01/03 08:31:03;;;;;;;;;;;;;;;8.05;100.00;94981.22;5066694;28;20107;-73
2024/01/03 08:33:29;;;;;;;;;;;;;;;8.03;100.00;95006.00;5066338;28;19961;-73
2024/01/03 08:35:55;;;;;;;;;;;;;;;7.98;100.00;95004.09;5048634;28;20237;-73
2024/01/03 08:38:21;;;;;;;;;;;;;;;7.93;100.00;94994.34;5065391;28;19954;-73
2024/01/03 08:40:46;;;;;;;;;;;;;;;7.90;100.00;94994.06;5032154;28;19946;-73
2024/01/03 08:43:12;;;;;;;;;;;;;;;7.86;100.00;95016.44;5032167;28;19941;-86
2024/01/03 08:45:38;;;;;;;;;;;;;;;7.78;100.00;95046.28;5066182;28;20156;-86
2024/01/03 08:48:06;;;;;;;;;;;;;;;7.73;100.00;95030.56;5065880;28;19950;-87
2024/01/03 08:50:31;;;;;;;;;;;;;;;7.65;100.00;95033.56;5065987;28;19932;-87
2024/01/03 08:52:59;;;;;;;;;;;;;;;7.59;100.00;95026.66;5066013;28;19934;-87
2024/01/03 08:55:24;;;;;;;;;;;;;;;7.52;100.00;95017.16;5065825;28;19949;-86
2024/01/03 08:57:56;;;;;;;;;;;;;;;7.52;100.00;95021.59;5065679;28;19964;-71
2024/01/03 09:00:23;;;;;;;;;;;;;;;7.49;100.00;95004.56;5065666;28;19990;-69
2024/01/03 09:02:49;;;;;;;;;;;;;;;7.50;100.00;95002.75;5065659;28;19938;-70
2024/01/03 09:05:15;;;;;;;;;;;;;;;7.53;100.00;95005.69;5065100;28;20105;-70
2024/01/03 09:07:42;;;;;;;;;;;;;;;7.57;100.00;95013.84;5047265;28;19992;-70
2024/01/03 09:10:08;;;;;;;;;;;;;;;7.59;100.00;95011.78;5065669;28;20202;-70
2024/01/03 09:12:34;;;;;;;;;;;;;;;7.58;100.00;95007.59;5065550;28;19932;-70
2024/01/03 09:15:00;;;;;;;;;;;;;;;7.60;100.00;95008.16;5065763;28;20002;-70
2024/01/03 09:17:26;;;;;;;;;;;;;;;7.62;100.00;95002.69;5065783;28;19988;-71
2024/01/03 09:19:52;;;;;;;;;;;;;;;7.63;100.00;95001.69;5065056;28;19981;-73
2024/01/03 09:22:18;;;;;;;;;;;;;;;7.64;100.00;94998.03;5030584;28;19978;-72
2024/01/03 09:24:43;;;;;;;;;;;;;;;7.67;100.00;95015.84;5031211;28;19947;-73
2024/01/03 09:27:09;;;;;;;;;;;;;;;7.77;100.00;95016.03;5031232;28;19968;-73
2024/01/03 09:29:35;;;;;;;;;;;;;;;7.92;100.00;95011.06;5030542;28;19958;-73
2024/01/03 09:32:02;;;;;;;;;;;;;;;8.19;100.00;95012.22;5047533;28;20000;-73
2024/01/03 09:34:27;;;;;;;;;;;;;;;8.51;100.00;95004.66;5065334;28;19942;-72
2024/01/03 09:36:53;;;;;;;;;;;;;;;8.71;100.00;95010.16;5047350;28;20005;-71
2024/01/03 09:39:19;;;;;;;;;;;;;;;8.85;100.00;95015.03;5065197;28;19944;-72
2024/01/03 09:41:46;;;;;;;;;;;;;;;8.96;100.00;95011.50;5031236;28;19944;-72
2024/01/03 09:44:12;;;;;;;;;;;;;;;8.85;100.00;95023.66;5064738;28;20127;-72
2024/01/03 09:46:39;;;;;;;;;;;;;;;8.67;100.00;95022.13;5047256;28;19944;-73
2024/01/03 09:49:05;;;;;;;;;;;;;;;8.46;100.00;95030.69;5064888;28;20113;-73
2024/01/03 09:51:31;;;;;;;;;;;;;;;8.29;100.00;95021.03;5064856;28;19945;-73
2024/01/03 09:53:57;;;;;;;;;;;;;;;8.20;100.00;95026.88;5046743;28;19976;-71
2024/01/03 09:56:23;;;;;;;;;;;;;;;8.09;100.00;95016.28;5064324;28;19960;-85
2024/01/03 09:58:49;;;;;;;;;;;;;;;8.06;100.00;95019.38;5064606;28;19982;-85
2024/01/03 10:01:15;;;;;;;;;;;;;;;8.08;100.00;95027.75;5063965;28;19976;-84
2024/01/03 10:03:41;;;;;;;;;;;;;;;8.16;100.00;95016.13;5064690;28;19937;-85
2024/01/03 10:06:13;;;;;;;;;;;;;;;8.19;100.00;95022.69;5064498;28;19939;-85
2024/01/03 10:08:55;;;;;;;;;;;;;;;8.32;100.00;95017.94;5064263;28;19959;-85
2024/01/03 10:11:21;;;;;;;;;;;;;;;8.44;100.00;95017.88;5064847;28;19950;-86
2024/01/03 10:13:52;;;;;;;;;;;;;;;8.56;100.00;95006.53;5064592;28;20128;-72
2024/01/03 10:16:23;;;;;;;;;;;;;;;8.68;100.00;95002.00;5046703;28;20209;-72
2024/01/03 10:19:06;;;;;;;;;;;;;;;8.80;100.00;95020.19;5046594;28;20226;-72
2024/01/03 10:21:32;;;;;;;;;;;;;;;8.94;100.00;95010.97;5063428;28;19950;-72
2024/01/03 10:24:06;;;;;;;;;;;;;;;9.05;100.00;95017.91;5064426;28;19991;-72
2024/01/03 10:26:33;;;;;;;;;;;;;;;9.14;100.00;95011.22;5063870;28;19942;-72
2024/01/03 10:29:12;;;;;;;;;;;;;;;9.31;100.00;95020.81;5064324;28;20203;-72
2024/01/03 10:31:38;;;;;;;;;;;;;;;9.42;100.00;95014.66;5064288;28;19941;-72
2024/01/03 10:34:04;;;;;;;;;;;;;;;9.50;100.00;95013.44;5064268;28;19947;-72
2024/01/03 10:36:34;;;;;;;;;;;;;;;9.41;100.00;95010.47;5064395;28;19961;-72
2024/01/03 10:39:01;;;;;;;;;;;;;;;9.19;100.00;94999.25;5064241;28;20212;-72
2024/01/03 10:41:29;;;;;;;;;;;;;;;9.09;100.00;95002.50;5064218;28;20229;-72
2024/01/03 10:43:56;;;;;;;;;;;;;;;9.05;100.00;95036.22;5064423;28;19944;-72
2024/01/03 10:46:23;;;;;;;;;;;;;;;8.98;100.00;95024.34;5064330;28;19944;-74
2024/01/03 10:48:49;;;;;;;;;;;;;;;8.95;100.00;95015.16;5063610;28;19934;-71
2024/01/03 10:51:16;;;;;;;;;;;;;;;9.17;100.00;95020.41;5045812;28;19990;-72
2024/01/03 10:53:43;;;;;;;;;;;;;;;9.29;100.00;95004.59;5046410;28;19944;-72
2024/01/03 10:56:09;;;;;;;;;;;;;;;9.31;100.00;95033.91;5046238;28;19950;-72
2024/01/03 10:58:39;;;;;;;;;;;;;;;9.19;100.00;95020.16;5063962;28;20118;-73
2024/01/03 11:01:26;;;;;;;;;;;;;;;9.01;100.00;95035.13;5045855;28;19983;-72
2024/01/03 11:04:07;;;;;;;;;;;;;;;8.85;100.00;95038.56;5062870;28;19946;-72
2024/01/03 11:06:39;;;;;;;;;;;;;;;8.70;100.00;95042.53;5063975;28;19940;-72
2024/01/03 11:09:07;;;;;;;;;;;;;;;8.57;100.00;95069.03;5063436;28;19992;-71
2024/01/03 11:11:37;;;;;;;;;;;;;;;8.50;100.00;95068.38;5063430;28;19940;-84
2024/01/03 11:14:18;;;;;;;;;;;;;;;8.54;100.00;95049.38;5064231;28;19934;-84
2024/01/03 11:16:44;;;;;;;;;;;;;;;8.79;100.00;95050.75;5046286;28;19956;-85
2024/01/03 11:19:10;;;;;;;;;;;;;;;8.97;100.00;95034.03;5063941;28;19936;-84
2024/01/03 11:21:37;;;;;;;;;;;;;;;9.10;100.00;95032.88;5064150;28;19944;-85
2024/01/03 11:24:06;;;;;;;;;;;;;;;9.21;100.00;95039.00;5046833;28;19945;-85
2024/01/03 11:26:50;;;;;;;;;;;;;;;9.21;100.00;95021.50;5063691;28;19935;-71
2024/01/03 11:29:44;;;;;;;;;;;;;;;9.48;100.00;95008.44;5048521;28;19939;-75
2024/01/03 11:32:12;;;;;;;;;;;;;;;9.79;100.00;95000.91;5068218;28;19942;-75
2024/01/03 11:34:38;;;;;;;;;;;;;;;9.87;100.00;94997.03;5049774;28;19944;-75
2024/01/03 11:37:24;;;;;;;;;;;;;;;10.00;100.00;94998.47;5067786;28;20000;-75
2024/01/03 11:39:52;;;;;;;;;;;;;;;10.05;100.00;94988.03;5067398;28;19944;-76
2024/01/03 11:42:21;;;;;;;;;;;;;;;10.05;100.00;94986.19;5067535;28;19938;-75
2024/01/03 11:45:04;;;;;;;;;;;;;;;9.94;100.00;94979.31;5067248;28;19939;-69
2024/01/03 11:47:50;;;;;;;;;;;;;;;9.68;100.00;94986.94;5067415;28;19937;-69
2024/01/03 11:50:16;;;;;;;;;;;;;;;9.54;100.00;95007.47;5067443;28;19942;-69
2024/01/03 11:52:45;;;;;;;;;;;;;;;9.41;100.00;95000.00;5066905;28;19947;-68
2024/01/03 11:55:12;;;;;;;;;;;;;;;9.27;100.00;95015.28;5048937;28;20250;-68
2024/01/03 11:57:41;;;;;;;;;;;;;;;9.17;100.00;95019.63;5066643;28;19957;-69
2024/01/03 12:00:08;;;;;;;;;;;;;;;9.11;100.00;95024.78;5066553;28;19941;-71
2024/01/03 12:02:34;;;;;;;;;;;;;;;9.21;100.00;95012.84;5066921;28;20140;-72
2024/01/03 12:05:04;;;;;;;;;;;;;;;9.35;100.00;95012.25;5066606;28;20014;-72
2024/01/03 12:07:31;;;;;;;;;;;;;;;9.39;100.00;95002.09;5032621;28;19950;-72
2024/01/03 12:09:57;;;;;;;;;;;;;;;9.37;100.00;94998.13;5048745;28;19934;-72
2024/01/03 12:12:23;;;;;;;;;;;;;;;9.34;100.00;94991.53;5066456;28;20079;-73
2024/01/03 12:14:50;;;;;;;;;;;;;;;9.35;100.00;94995.75;5048638;28;19941;-72
2024/01/03 12:17:22;;;;;;;;;;;;;;;9.40;100.00;95001.03;5066255;28;19959;-72
2024/01/03 12:19:48;;;;;;;;;;;;;;;9.40;100.00;94995.03;5049063;28;20204;-72
2024/01/03 12:22:19;;;;;;;;;;;;;;;9.32;100.00;94993.63;5048387;28;19943;-86
2024/01/03 12:24:45;;;;;;;;;;;;;;;9.22;100.00;94986.47;5066943;28;20213;-72
2024/01/03 12:27:18;;;;;;;;;;;;;;;9.09;100.00;94985.03;5066114;28;20058;-72
2024/01/03 12:29:44;;;;;;;;;;;;;;;9.02;100.00;94973.94;5066388;28;20097;-72
2024/01/03 12:32:11;;;;;;;;;;;;;;;9.04;100.00;94971.88;5066055;28;19975;-72
2024/01/03 12:34:37;;;;;;;;;;;;;;;9.18;100.00;94959.22;5065913;28;20125;-72
2024/01/03 12:37:03;;;;;;;;;;;;;;;9.30;100.00;94970.34;5065913;28;19956;-72
2024/01/03 12:39:35;;;;;;;;;;;;;;;9.37;100.00;94953.66;5048423;28;19944;-73
2024/01/03 12:42:04;;;;;;;;;;;;;;;9.44;100.00;94946.41;5065716;28;19946;-82
2024/01/03 12:44:34;;;;;;;;;;;;;;;9.48;100.00;94932.56;5065826;28;19943;-87